Time;durP1;ratioP1;P1;durP2;ratioP2;P2;SDS_P1;SDS_P2;PMS_P1;PMS_P2;Temp;Humidity;BMP_temperature;BMP_pressure;BME280_temperature;BME280_humidity;BME280_pressure;Samples;Min_cycle;Max_cycle;Signal;HPM_P1;HPM_P2
2021/12/01 00:02:40;0.00;0.00;0.62;0.00;0.00;0.62;1.57;0.70;;;21.20;28.00;;;;;;2221778;62;20427;-64
2021/12/01 00:05:30;0.00;0.00;0.62;0.00;0.00;0.62;1.50;0.70;;;21.20;28.00;;;;;;2224631;62;20401;-64
2021/12/01 00:08:15;0.00;0.00;0.62;0.00;0.00;0.62;1.60;0.70;;;21.20;28.00;;;;;;2222627;62;20501;-64
2021/12/01 00:11:01;0.00;0.00;0.62;0.00;0.00;0.62;1.43;0.77;;;21.20;28.00;;;;;;2221743;62;20367;-64
2021/12/01 00:13:47;0.00;0.00;0.62;0.00;0.00;0.62;1.30;0.73;;;21.20;28.00;;;;;;2221600;62;20394;-65
2021/12/01 00:16:32;0.00;0.00;0.62;0.00;0.00;0.62;4.40;0.70;;;21.20;28.50;;;;;;2222465;62;20517;-64
2021/12/01 00:19:17;0.00;0.00;0.62;0.00;0.00;0.62;1.80;1.10;;;21.20;28.00;;;;;;2222877;62;20724;-63
2021/12/01 00:22:04;0.00;0.00;0.62;0.00;0.00;0.62;2.57;0.80;;;21.20;28.00;;;;;;2221828;62;20411;-63
2021/12/01 00:24:49;0.00;0.00;0.62;0.00;0.00;0.62;2.13;0.90;;;21.20;28.00;;;;;;2222482;62;20362;-63
2021/12/01 00:27:34;0.00;0.00;0.62;0.00;0.00;0.62;1.30;0.70;;;21.20;28.00;;;;;;2222475;62;20443;-64
2021/12/01 00:30:20;0.00;0.00;0.62;0.00;0.00;0.62;1.70;0.80;;;21.20;28.00;;;;;;2222404;62;20424;-64
2021/12/01 00:33:05;0.00;0.00;0.62;0.00;0.00;0.62;1.77;0.70;;;21.20;28.00;;;;;;2222489;62;20428;-64
2021/12/01 00:35:52;0.00;0.00;0.62;0.00;0.00;0.62;1.50;0.80;;;21.20;28.00;;;;;;2222085;62;20352;-64
2021/12/01 00:38:38;0.00;0.00;0.62;0.00;0.00;0.62;1.20;0.63;;;21.20;28.10;;;;;;2222500;62;20411;-64
2021/12/01 00:41:23;0.00;0.00;0.62;0.00;0.00;0.62;1.47;0.77;;;21.20;28.00;;;;;;2222471;62;20499;-64
2021/12/01 00:44:10;0.00;0.00;0.62;0.00;0.00;0.62;2.23;0.80;;;21.20;28.00;;;;;;2222164;62;20367;-65
2021/12/01 00:49:46;0.00;0.00;0.62;0.00;0.00;0.62;1.40;0.63;;;21.20;28.00;;;;;;2222052;62;20414;-64
2021/12/01 00:52:31;0.00;0.00;0.62;0.00;0.00;0.62;1.20;0.60;;;21.20;28.10;;;;;;2222134;62;20613;-65
2021/12/01 00:55:17;0.00;0.00;0.62;0.00;0.00;0.62;1.40;0.60;;;21.20;28.00;;;;;;2222397;62;20519;-64
2021/12/01 00:58:03;0.00;0.00;0.62;0.00;0.00;0.62;1.20;0.60;;;21.20;28.10;;;;;;2221939;62;20424;-64
2021/12/01 01:00:49;0.00;0.00;0.62;0.00;0.00;0.62;1.70;0.70;;;21.20;28.10;;;;;;2222321;62;20371;-64
2021/12/01 01:03:35;0.00;0.00;0.62;0.00;0.00;0.62;1.30;0.70;;;21.20;28.10;;;;;;2222439;62;20439;-64
2021/12/01 01:06:20;0.00;0.00;0.62;0.00;0.00;0.62;1.30;0.70;;;21.20;28.10;;;;;;2221720;62;20423;-65
2021/12/01 01:09:07;0.00;0.00;0.62;0.00;0.00;0.62;1.80;0.60;;;21.20;28.10;;;;;;2222367;62;20382;-64
2021/12/01 01:18:08;0.00;0.00;0.62;0.00;0.00;0.62;1.20;0.60;;;21.20;28.10;;;;;;2222548;62;20416;-65
2021/12/01 01:20:52;0.00;0.00;0.62;0.00;0.00;0.62;1.30;0.60;;;21.20;28.10;;;;;;2221792;62;20348;-65
2021/12/01 01:23:38;0.00;0.00;0.62;0.00;0.00;0.62;1.77;1.03;;;21.20;28.10;;;;;;2222084;62;20374;-65
2021/12/01 01:26:24;0.00;0.00;0.62;0.00;0.00;0.62;1.40;0.60;;;21.20;28.10;;;;;;2224586;62;20595;-64
2021/12/01 01:29:11;0.00;0.00;0.62;0.00;0.00;0.62;1.40;0.80;;;21.20;28.10;;;;;;2221904;62;20405;-64
2021/12/01 01:31:57;0.00;0.00;0.62;0.00;0.00;0.62;1.30;0.63;;;21.20;28.10;;;;;;2221982;62;20444;-64
2021/12/01 01:34:42;0.00;0.00;0.62;0.00;0.00;0.62;1.23;0.67;;;21.20;28.10;;;;;;2221928;62;20447;-65
2021/12/01 01:37:27;0.00;0.00;0.62;0.00;0.00;0.62;2.43;0.60;;;21.20;28.10;;;;;;2222546;62;20646;-65
2021/12/01 01:40:13;0.00;0.00;0.62;0.00;0.00;0.62;1.73;0.70;;;21.20;28.10;;;;;;2222521;62;20443;-64
2021/12/01 01:42:57;0.00;0.00;0.62;0.00;0.00;0.62;1.30;0.70;;;21.20;28.10;;;;;;2221429;62;20394;-65
2021/12/01 01:45:43;0.00;0.00;0.62;0.00;0.00;0.62;1.40;0.60;;;21.20;28.10;;;;;;2222289;62;20719;-66
2021/12/01 01:48:30;0.00;0.00;0.62;0.00;0.00;0.62;1.50;0.80;;;21.20;28.10;;;;;;2224393;62;20379;-66
2021/12/01 01:51:18;0.00;0.00;0.62;0.00;0.00;0.62;1.50;0.60;;;21.30;28.20;;;;;;2221617;62;20467;-65
2021/12/01 01:54:03;0.00;0.00;0.62;0.00;0.00;0.62;1.33;0.70;;;21.20;28.20;;;;;;2222337;62;20394;-64
2021/12/01 01:56:48;0.00;0.00;0.62;0.00;0.00;0.62;1.20;0.60;;;21.30;28.20;;;;;;2221575;62;20599;-64
2021/12/01 01:59:33;0.00;0.00;0.62;0.00;0.00;0.62;1.40;0.70;;;21.30;28.20;;;;;;2222211;62;20408;-65
2021/12/01 02:02:19;0.00;0.00;0.62;0.00;0.00;0.62;1.77;0.60;;;21.30;28.10;;;;;;2222047;62;20402;-64
2021/12/01 02:05:04;0.00;0.00;0.62;0.00;0.00;0.62;1.43;0.90;;;21.30;28.10;;;;;;2221393;62;20408;-65
2021/12/01 02:07:52;0.00;0.00;0.62;0.00;0.00;0.62;1.40;0.80;;;21.30;28.10;;;;;;2222294;62;20367;-66
2021/12/01 02:10:37;0.00;0.00;0.62;0.00;0.00;0.62;1.47;0.90;;;21.30;28.00;;;;;;2221835;62;20378;-65
2021/12/01 02:13:23;0.00;0.00;0.62;0.00;0.00;0.62;6.70;0.97;;;21.30;28.00;;;;;;2221828;62;20381;-65
2021/12/01 02:16:09;0.00;0.00;0.62;0.00;0.00;0.62;1.40;0.80;;;21.30;28.00;;;;;;2222260;62;20489;-65
2021/12/01 02:18:55;0.00;0.00;0.62;0.00;0.00;0.62;1.70;1.10;;;21.20;27.90;;;;;;2221603;62;20402;-66
2021/12/01 02:21:41;0.00;0.00;0.62;0.00;0.00;0.62;1.77;1.00;;;21.20;27.90;;;;;;2222117;62;20395;-65
2021/12/01 02:24:26;0.00;0.00;0.62;0.00;0.00;0.62;2.20;1.03;;;21.20;27.90;;;;;;2222112;62;20371;-66
2021/12/01 02:27:12;0.00;0.00;0.62;0.00;0.00;0.62;1.90;1.07;;;21.20;27.90;;;;;;2221302;62;20371;-66
2021/12/01 02:29:57;0.00;0.00;0.62;0.00;0.00;0.62;1.63;0.80;;;21.10;27.90;;;;;;2224335;62;20379;-65
2021/12/01 02:32:42;0.00;0.00;0.62;0.00;0.00;0.62;1.50;1.00;;;21.10;27.90;;;;;;2221851;62;20403;-65
2021/12/01 02:35:27;0.00;0.00;0.62;0.00;0.00;0.62;1.70;1.13;;;21.10;27.90;;;;;;2221168;62;20405;-65
2021/12/01 02:38:14;0.00;0.00;0.62;0.00;0.00;0.62;2.57;1.07;;;21.10;27.90;;;;;;2222054;62;20370;-65
2021/12/01 02:40:58;0.00;0.00;0.62;0.00;0.00;0.62;1.40;0.80;;;21.10;27.90;;;;;;2221694;62;20367;-65
2021/12/01 02:43:46;0.00;0.00;0.62;0.00;0.00;0.62;1.73;1.10;;;21.10;27.90;;;;;;2221979;62;20653;-65
2021/12/01 02:46:32;0.00;0.00;0.62;0.00;0.00;0.62;1.50;0.90;;;21.10;27.90;;;;;;2221970;62;20732;-65
2021/12/01 02:49:20;0.00;0.00;0.62;0.00;0.00;0.62;1.63;0.90;;;21.00;27.90;;;;;;2221394;62;20366;-64
2021/12/01 02:52:06;0.00;0.00;0.62;0.00;0.00;0.62;3.20;1.23;;;21.00;27.90;;;;;;2221785;62;20395;-65
2021/12/01 02:54:53;0.00;0.00;0.62;0.00;0.00;0.62;1.67;1.20;;;21.00;28.50;;;;;;2221920;62;20403;-65
2021/12/01 02:57:49;0.00;0.00;0.62;0.00;0.00;0.62;2.27;0.80;;;21.00;28.00;;;;;;2221738;62;20378;-64
2021/12/01 03:00:34;0.00;0.00;0.62;0.00;0.00;0.62;1.83;0.97;;;21.00;28.00;;;;;;2221786;62;20386;-65
2021/12/01 03:03:20;0.00;0.00;0.62;0.00;0.00;0.62;1.80;0.93;;;21.00;28.00;;;;;;2221375;62;20387;-65
2021/12/01 03:06:06;0.00;0.00;0.62;0.00;0.00;0.62;1.67;0.80;;;20.90;28.00;;;;;;2222181;62;20781;-65
2021/12/01 03:08:50;0.00;0.00;0.62;0.00;0.00;0.62;1.40;0.77;;;20.90;28.00;;;;;;2221984;62;20512;-65
2021/12/01 03:11:37;0.00;0.00;0.62;0.00;0.00;0.62;1.50;0.80;;;20.90;28.00;;;;;;2221215;62;20508;-65
2021/12/01 03:14:22;0.00;0.00;0.62;0.00;0.00;0.62;1.50;0.80;;;20.90;28.00;;;;;;2221895;62;20400;-65
2021/12/01 03:17:07;0.00;0.00;0.62;0.00;0.00;0.62;1.80;0.80;;;20.90;28.00;;;;;;2221837;62;20371;-65
2021/12/01 03:19:52;0.00;0.00;0.62;0.00;0.00;0.62;1.93;1.17;;;20.90;28.10;;;;;;2221621;62;20366;-65
2021/12/01 03:22:37;0.00;0.00;0.62;0.00;0.00;0.62;1.73;0.87;;;20.90;28.10;;;;;;2221817;62;20432;-66
2021/12/01 03:25:22;0.00;0.00;0.62;0.00;0.00;0.62;1.70;1.07;;;20.80;28.10;;;;;;2221665;62;20627;-65
2021/12/01 03:28:09;0.00;0.00;0.62;0.00;0.00;0.62;1.50;0.70;;;20.80;28.10;;;;;;2221992;62;20832;-64
2021/12/01 03:30:54;0.00;0.00;0.62;0.00;0.00;0.62;1.50;0.80;;;20.80;28.10;;;;;;2221960;62;20751;-65
2021/12/01 03:33:40;0.00;0.00;0.62;0.00;0.00;0.62;1.40;0.80;;;20.80;28.10;;;;;;2221155;62;20367;-65
2021/12/01 03:36:24;0.00;0.00;0.62;0.00;0.00;0.62;1.40;0.80;;;20.80;28.20;;;;;;2221887;62;20439;-65
2021/12/01 03:39:09;0.00;0.00;0.62;0.00;0.00;0.62;1.67;0.90;;;20.80;28.20;;;;;;2221953;62;20391;-65
2021/12/01 03:41:54;0.00;0.00;0.62;0.00;0.00;0.62;1.20;0.70;;;20.70;28.20;;;;;;2221291;62;20391;-65
2021/12/01 03:44:40;0.00;0.00;0.62;0.00;0.00;0.62;1.30;0.70;;;20.70;28.30;;;;;;2222897;62;20652;-65
2021/12/01 03:47:27;0.00;0.00;0.62;0.00;0.00;0.62;1.30;0.70;;;20.70;28.30;;;;;;2226117;62;20650;-65
2021/12/01 03:50:12;0.00;0.00;0.62;0.00;0.00;0.62;1.30;0.80;;;20.70;28.40;;;;;;2226158;62;20754;-65
2021/12/01 03:52:57;0.00;0.00;0.62;0.00;0.00;0.62;1.30;0.60;;;20.70;28.50;;;;;;2226623;62;20381;-65
2021/12/01 03:55:43;0.00;0.00;0.62;0.00;0.00;0.62;1.43;0.80;;;20.70;28.60;;;;;;2225785;62;20431;-65
2021/12/01 03:58:28;0.00;0.00;0.62;0.00;0.00;0.62;1.73;0.80;;;20.60;28.60;;;;;;2226395;62;20491;-64
2021/12/01 04:01:15;0.00;0.00;0.62;0.00;0.00;0.62;1.30;0.77;;;20.60;28.80;;;;;;2226584;62;20389;-64
2021/12/01 04:04:00;0.00;0.00;0.62;0.00;0.00;0.62;1.40;0.80;;;20.50;28.80;;;;;;2225502;62;20609;-65
2021/12/01 04:06:44;0.00;0.00;0.62;0.00;0.00;0.62;1.40;0.90;;;20.50;28.90;;;;;;2222536;62;20371;-65
2021/12/01 04:09:30;0.00;0.00;0.62;0.00;0.00;0.62;1.30;0.80;;;20.50;29.00;;;;;;2222486;62;20387;-64
2021/12/01 04:12:15;0.00;0.00;0.62;0.00;0.00;0.62;1.30;0.70;;;20.40;29.10;;;;;;2222205;62;20390;-64
2021/12/01 04:15:00;0.00;0.00;0.62;0.00;0.00;0.62;1.43;0.80;;;20.40;29.20;;;;;;2222588;62;20389;-65
2021/12/01 04:17:48;0.00;0.00;0.62;0.00;0.00;0.62;1.70;0.80;;;20.30;29.20;;;;;;2221727;62;20379;-65
2021/12/01 04:20:32;0.00;0.00;0.62;0.00;0.00;0.62;1.33;0.80;;;20.30;29.30;;;;;;2222538;62;20370;-65
2021/12/01 04:23:17;0.00;0.00;0.62;0.00;0.00;0.62;1.47;1.00;;;20.30;29.40;;;;;;2222792;62;20375;-65
2021/12/01 04:26:02;0.00;0.00;0.62;0.00;0.00;0.62;1.53;0.83;;;20.20;29.40;;;;;;2221893;62;20366;-65
2021/12/01 04:28:47;0.00;0.00;0.62;0.00;0.00;0.62;1.33;0.80;;;20.20;29.50;;;;;;2222608;62;20418;-64
2021/12/01 04:31:35;0.00;0.00;0.62;0.00;0.00;0.62;1.23;0.77;;;20.20;29.60;;;;;;2222188;62;20385;-64
2021/12/01 04:34:22;0.00;0.00;0.62;0.00;0.00;0.62;2.87;0.90;;;20.10;29.60;;;;;;2222164;62;20431;-64
2021/12/01 04:37:07;0.00;0.00;0.62;0.00;0.00;0.62;1.40;0.80;;;20.10;29.70;;;;;;2222509;62;20383;-64
2021/12/01 04:39:52;0.00;0.00;0.62;0.00;0.00;0.62;1.57;0.90;;;20.00;29.70;;;;;;2221226;62;20408;-64
2021/12/01 04:42:38;0.00;0.00;0.62;0.00;0.00;0.62;1.30;0.80;;;20.00;29.80;;;;;;2222604;62;20432;-64
2021/12/01 04:45:25;0.00;0.00;0.62;0.00;0.00;0.62;1.30;0.70;;;20.00;29.90;;;;;;2222223;62;20735;-65
2021/12/01 04:48:11;0.00;0.00;0.62;0.00;0.00;0.62;1.30;0.80;;;19.90;29.90;;;;;;2221877;62;20451;-64
2021/12/01 04:50:58;0.00;0.00;0.62;0.00;0.00;0.62;1.30;0.60;;;19.90;30.00;;;;;;2222173;62;20395;-64
2021/12/01 04:53:44;0.00;0.00;0.62;0.00;0.00;0.62;1.20;0.60;;;19.90;30.00;;;;;;2222219;62;20367;-64
2021/12/01 04:56:29;0.00;0.00;0.62;0.00;0.00;0.62;1.80;0.70;;;19.80;30.00;;;;;;2222124;62;20367;-64
2021/12/01 04:59:15;0.00;0.00;0.62;0.00;0.00;0.62;1.50;0.77;;;19.80;30.10;;;;;;2222292;62;20482;-64
2021/12/01 05:02:01;0.00;0.00;0.62;0.00;0.00;0.62;1.20;0.60;;;19.80;30.20;;;;;;2221441;62;20418;-64
2021/12/01 05:04:45;0.00;0.00;0.62;0.00;0.00;0.62;1.30;0.70;;;19.70;30.10;;;;;;2222600;62;20374;-64
2021/12/01 05:07:32;0.00;0.00;0.62;0.00;0.00;0.62;1.73;0.70;;;19.70;30.10;;;;;;2222471;62;20440;-64
2021/12/01 05:10:17;0.00;0.00;0.62;0.00;0.00;0.62;1.20;0.60;;;19.60;30.10;;;;;;2221572;62;20608;-64
2021/12/01 05:13:02;0.00;0.00;0.62;0.00;0.00;0.62;1.40;0.80;;;19.60;30.10;;;;;;2222363;62;20391;-64
2021/12/01 05:15:47;0.00;0.00;0.62;0.00;0.00;0.62;1.63;0.70;;;19.60;30.10;;;;;;2223054;62;20750;-64
2021/12/01 05:18:32;0.00;0.00;0.62;0.00;0.00;0.62;1.30;0.70;;;19.60;30.20;;;;;;2223030;62;20367;-64
2021/12/01 05:21:17;0.00;0.00;0.62;0.00;0.00;0.62;1.20;0.60;;;19.50;30.20;;;;;;2223133;62;20390;-64
2021/12/01 05:24:04;0.00;0.00;0.62;0.00;0.00;0.62;1.30;0.70;;;19.50;30.20;;;;;;2221687;62;20451;-67
2021/12/01 05:26:49;0.00;0.00;0.62;0.00;0.00;0.62;1.60;0.73;;;19.50;30.30;;;;;;2222642;62;20596;-65
2021/12/01 05:29:34;0.00;0.00;0.62;0.00;0.00;0.62;1.23;0.60;;;19.50;30.40;;;;;;2222374;62;20412;-64
2021/12/01 05:32:20;0.00;0.00;0.62;0.00;0.00;0.62;1.70;0.70;;;19.50;30.40;;;;;;2221742;62;20467;-64
2021/12/01 05:35:06;0.00;0.00;0.62;0.00;0.00;0.62;1.30;0.70;;;19.50;30.40;;;;;;2222285;62;20398;-65
2021/12/01 05:37:51;0.00;0.00;0.62;0.00;0.00;0.62;1.30;0.70;;;19.50;30.40;;;;;;2222081;62;20370;-64
2021/12/01 05:40:37;0.00;0.00;0.62;0.00;0.00;0.62;1.30;0.60;;;19.40;30.40;;;;;;2221318;62;20419;-64
2021/12/01 05:43:22;0.00;0.00;0.62;0.00;0.00;0.62;1.30;0.70;;;19.40;30.50;;;;;;2222197;62;20382;-64
2021/12/01 05:46:07;0.00;0.00;0.62;0.00;0.00;0.62;1.30;0.70;;;19.40;30.50;;;;;;2223869;62;20364;-65
2021/12/01 05:48:52;0.00;0.00;0.62;0.00;0.00;0.62;2.43;0.63;;;19.40;30.60;;;;;;2222603;62;20412;-65
2021/12/01 05:51:38;0.00;0.00;0.62;0.00;0.00;0.62;1.47;0.80;;;19.40;30.50;;;;;;2221987;62;20399;-65
2021/12/01 05:54:22;0.00;0.00;0.62;0.00;0.00;0.62;1.37;0.67;;;19.30;30.50;;;;;;2221566;62;20525;-64
2021/12/01 05:57:09;0.00;0.00;0.62;0.00;0.00;0.62;1.27;0.63;;;19.30;30.60;;;;;;2222224;62;20596;-65
2021/12/01 05:59:54;0.00;0.00;0.62;0.00;0.00;0.62;1.50;0.70;;;19.30;30.50;;;;;;2222026;62;20650;-65
2021/12/01 06:02:40;0.00;0.00;0.62;0.00;0.00;0.62;1.20;0.60;;;19.30;30.50;;;;;;2221544;62;20410;-65
2021/12/01 06:05:25;0.00;0.00;0.62;0.00;0.00;0.62;2.20;0.73;;;19.30;30.50;;;;;;2222124;62;20768;-65
2021/12/01 06:08:11;0.00;0.00;0.62;0.00;0.00;0.62;1.27;0.63;;;19.30;30.60;;;;;;2221984;62;20779;-64
2021/12/01 06:10:55;0.00;0.00;0.62;0.00;0.00;0.62;2.07;0.87;;;19.30;30.60;;;;;;2221854;62;20375;-65
2021/12/01 06:13:44;0.00;0.00;0.62;0.00;0.00;0.62;1.20;0.60;;;19.20;30.50;;;;;;2222206;62;20371;-65
2021/12/01 06:16:29;0.00;0.00;0.62;0.00;0.00;0.62;1.20;0.70;;;19.20;31.20;;;;;;2221551;62;20480;-64
2021/12/01 06:19:14;0.00;0.00;0.62;0.00;0.00;0.62;1.40;0.70;;;19.20;30.50;;;;;;2222068;62;20375;-64
2021/12/01 06:21:59;0.00;0.00;0.62;0.00;0.00;0.62;1.30;0.77;;;19.20;30.50;;;;;;2224230;62;20597;-64
2021/12/01 06:24:43;0.00;0.00;0.62;0.00;0.00;0.62;1.40;0.60;;;19.20;30.60;;;;;;2221356;62;20580;-64
2021/12/01 06:27:28;0.00;0.00;0.62;0.00;0.00;0.62;2.97;0.80;;;19.10;31.20;;;;;;2222049;62;20743;-64
2021/12/01 06:30:14;0.00;0.00;0.62;0.00;0.00;0.62;1.27;0.67;;;19.10;30.60;;;;;;2221888;62;20400;-64
2021/12/01 06:32:59;0.00;0.00;0.62;0.00;0.00;0.62;1.30;0.60;;;19.10;30.60;;;;;;2221639;62;20848;-65
2021/12/01 06:35:48;0.00;0.00;0.62;0.00;0.00;0.62;1.30;0.70;;;19.00;30.60;;;;;;2222199;62;20426;-65
2021/12/01 06:38:33;0.00;0.00;0.62;0.00;0.00;0.62;1.30;0.60;;;19.00;30.60;;;;;;2221338;62;20405;-65
2021/12/01 06:41:18;0.00;0.00;0.62;0.00;0.00;0.62;1.40;0.70;;;19.00;30.60;;;;;;2224130;62;20390;-65
2021/12/01 06:44:04;0.00;0.00;0.62;0.00;0.00;0.62;1.30;0.60;;;19.00;30.70;;;;;;2222395;62;20453;-65
2021/12/01 06:46:51;0.00;0.00;0.62;0.00;0.00;0.62;1.30;0.70;;;19.00;30.70;;;;;;2221521;62;20378;-65
2021/12/01 06:49:35;0.00;0.00;0.62;0.00;0.00;0.62;1.23;0.60;;;18.90;30.60;;;;;;2221964;62;20416;-65
2021/12/01 06:52:20;0.00;0.00;0.62;0.00;0.00;0.62;1.23;0.70;;;18.90;30.60;;;;;;2221993;62;20399;-64
2021/12/01 06:55:07;0.00;0.00;0.62;0.00;0.00;0.62;1.30;0.70;;;18.90;30.60;;;;;;2221898;62;20556;-64
2021/12/01 06:57:52;0.00;0.00;0.62;0.00;0.00;0.62;1.30;0.60;;;18.90;30.70;;;;;;2221935;62;20366;-65
2021/12/01 07:00:37;0.00;0.00;0.62;0.00;0.00;0.62;1.20;0.70;;;18.90;30.60;;;;;;2221097;62;20780;-65
2021/12/01 07:03:23;0.00;0.00;0.62;0.00;0.00;0.62;2.10;0.90;;;18.90;30.60;;;;;;2222046;62;20750;-64
2021/12/01 07:06:09;0.00;0.00;0.62;0.00;0.00;0.62;1.20;0.60;;;18.80;30.50;;;;;;2222161;62;20363;-65
2021/12/01 07:08:55;0.00;0.00;0.62;0.00;0.00;0.62;1.97;0.80;;;18.80;30.40;;;;;;2221702;62;20370;-67
2021/12/01 07:11:40;0.00;0.00;0.62;0.00;0.00;0.62;1.37;0.80;;;18.80;30.40;;;;;;2222015;62;20652;-65
2021/12/01 07:14:25;0.00;0.00;0.62;0.00;0.00;0.62;1.30;0.70;;;18.80;30.40;;;;;;2221940;62;20390;-66
2021/12/01 07:17:09;0.00;0.00;0.62;0.00;0.00;0.62;1.20;0.67;;;18.80;30.50;;;;;;2221773;62;20439;-62
2021/12/01 07:19:55;0.00;0.00;0.62;0.00;0.00;0.62;1.40;0.87;;;18.80;30.50;;;;;;2222032;62;20371;-65
2021/12/01 07:22:42;0.00;0.00;0.62;0.00;0.00;0.62;1.30;0.80;;;18.80;30.40;;;;;;2220898;62;20403;-64
2021/12/01 07:25:26;0.00;0.00;0.62;0.00;0.00;0.62;1.53;0.80;;;18.70;30.30;;;;;;2222187;62;20574;-62
2021/12/01 07:28:12;0.00;0.00;0.62;0.00;0.00;0.62;2.47;0.87;;;18.70;30.20;;;;;;2222270;62;20490;-68
2021/12/01 07:30:56;0.00;0.00;0.62;0.00;0.00;0.62;1.50;1.00;;;18.70;30.20;;;;;;2221210;62;20420;-68
2021/12/01 07:33:41;0.00;0.00;0.62;0.00;0.00;0.62;1.53;0.90;;;18.70;30.30;;;;;;2222019;62;20370;-67
2021/12/01 07:36:27;0.00;0.00;0.62;0.00;0.00;0.62;1.30;0.90;;;18.60;30.20;;;;;;2221814;62;20402;-69
2021/12/01 07:39:12;0.00;0.00;0.62;0.00;0.00;0.62;1.60;0.90;;;18.60;30.30;;;;;;2221519;62;20588;-68
2021/12/01 07:41:57;0.00;0.00;0.62;0.00;0.00;0.62;1.50;0.80;;;18.60;30.40;;;;;;2220593;62;20415;-67
2021/12/01 07:44:42;0.00;0.00;0.62;0.00;0.00;0.62;1.40;0.90;;;18.60;30.40;;;;;;2221669;62;20359;-68
2021/12/01 07:47:27;0.00;0.00;0.62;0.00;0.00;0.62;1.70;0.90;;;18.60;30.40;;;;;;2222189;62;20363;-67
2021/12/01 07:50:12;0.00;0.00;0.62;0.00;0.00;0.62;2.03;0.70;;;18.60;30.40;;;;;;2221557;62;20381;-67
2021/12/01 07:52:58;0.00;0.00;0.62;0.00;0.00;0.62;1.70;1.37;;;18.60;30.40;;;;;;2224068;62;20422;-67
2021/12/01 07:55:43;0.00;0.00;0.62;0.00;0.00;0.62;1.47;0.77;;;18.60;30.40;;;;;;2221723;62;20395;-70
2021/12/01 07:58:28;0.00;0.00;0.62;0.00;0.00;0.62;3.10;1.70;;;18.60;30.40;;;;;;2221847;62;20363;-65
2021/12/01 08:01:13;0.00;0.00;0.62;0.00;0.00;0.62;1.40;0.87;;;18.50;30.90;;;;;;2221780;62;20618;-67
2021/12/01 08:03:58;0.00;0.00;0.62;0.00;0.00;0.62;1.53;1.00;;;18.50;30.20;;;;;;2221468;62;20412;-66
2021/12/01 08:06:43;0.00;0.00;0.62;0.00;0.00;0.62;2.53;1.20;;;18.50;30.80;;;;;;2452865;54;20390;-65
2021/12/01 08:09:29;0.00;0.00;0.62;0.00;0.00;0.62;3.23;1.03;;;18.50;30.10;;;;;;2222214;62;20470;-67
2021/12/01 08:12:14;0.00;0.00;0.62;0.00;0.00;0.62;2.13;0.80;;;18.50;30.20;;;;;;2221342;62;20395;-63
2021/12/01 08:14:59;0.00;0.00;0.62;0.00;0.00;0.62;3.10;0.97;;;18.40;30.20;;;;;;2221469;62;20431;-63
2021/12/01 08:17:44;0.00;0.00;0.62;0.00;0.00;0.62;4.00;0.80;;;18.40;30.30;;;;;;2221913;62;20416;-63
2021/12/01 08:20:29;0.00;0.00;0.62;0.00;0.00;0.62;1.60;0.80;;;18.50;30.40;;;;;;2221350;62;20374;-63
2021/12/01 08:23:15;0.00;0.00;0.62;0.00;0.00;0.62;1.80;0.70;;;18.50;30.40;;;;;;2221763;62;20428;-63
2021/12/01 08:26:01;0.00;0.00;0.62;0.00;0.00;0.62;1.57;1.07;;;18.50;30.40;;;;;;2221299;62;20375;-63
2021/12/01 08:28:46;0.00;0.00;0.62;0.00;0.00;0.62;1.40;0.80;;;18.60;30.50;;;;;;2221763;62;20379;-63
2021/12/01 08:31:31;0.00;0.00;0.62;0.00;0.00;0.62;1.40;0.80;;;18.60;30.40;;;;;;2221482;62;20431;-65
2021/12/01 08:34:15;0.00;0.00;0.62;0.00;0.00;0.62;2.30;0.80;;;18.70;30.50;;;;;;2221964;62;20370;-68
2021/12/01 08:37:00;0.00;0.00;0.62;0.00;0.00;0.62;2.67;0.70;;;18.70;30.50;;;;;;2222313;62;20579;-66
2021/12/01 08:39:45;0.00;0.00;0.62;0.00;0.00;0.62;1.30;0.70;;;18.70;30.50;;;;;;2221907;62;20722;-65
2021/12/01 08:42:32;0.00;0.00;0.62;0.00;0.00;0.62;1.40;0.67;;;18.80;30.60;;;;;;2225958;62;20390;-63
2021/12/01 08:45:17;0.00;0.00;0.62;0.00;0.00;0.62;3.10;0.70;;;18.80;30.60;;;;;;2226349;62;20696;-65
2021/12/01 08:48:03;0.00;0.00;0.62;0.00;0.00;0.62;1.30;0.60;;;18.90;30.70;;;;;;2225825;62;20370;-66
2021/12/01 08:50:48;0.00;0.00;0.62;0.00;0.00;0.62;2.13;0.70;;;18.90;30.60;;;;;;2226138;62;20447;-66
2021/12/01 08:53:37;0.00;0.00;0.62;0.00;0.00;0.62;1.40;0.70;;;19.00;30.70;;;;;;2226581;62;20411;-65
2021/12/01 08:56:22;0.00;0.00;0.62;0.00;0.00;0.62;1.30;0.63;;;19.00;30.70;;;;;;2226082;62;20750;-63
2021/12/01 08:59:08;0.00;0.00;0.62;0.00;0.00;0.62;1.23;0.70;;;19.10;30.80;;;;;;2226350;62;20778;-62
2021/12/01 09:01:53;0.00;0.00;0.62;0.00;0.00;0.62;1.30;0.67;;;19.10;30.70;;;;;;2225762;62;20781;-65
2021/12/01 09:04:38;0.00;0.00;0.62;0.00;0.00;0.62;1.40;0.70;;;19.20;30.70;;;;;;2226322;62;20362;-65
2021/12/01 09:07:22;0.00;0.00;0.62;0.00;0.00;0.62;1.87;0.77;;;19.20;30.60;;;;;;2226286;62;20415;-65
2021/12/01 09:10:08;0.00;0.00;0.62;0.00;0.00;0.62;1.50;0.70;;;19.20;30.60;;;;;;2225742;62;20678;-66
2021/12/01 09:12:53;0.00;0.00;0.62;0.00;0.00;0.62;2.37;0.73;;;19.30;30.60;;;;;;2226234;62;20511;-65
2021/12/01 09:15:39;0.00;0.00;0.62;0.00;0.00;0.62;2.07;0.70;;;19.30;30.50;;;;;;2226287;62;20416;-65
2021/12/01 09:18:27;0.00;0.00;0.62;0.00;0.00;0.62;1.50;0.70;;;19.30;30.40;;;;;;2225883;62;20640;-65
2021/12/01 09:21:13;0.00;0.00;0.62;0.00;0.00;0.62;1.20;0.60;;;19.40;30.50;;;;;;2225863;62;20427;-66
2021/12/01 09:23:58;0.00;0.00;0.62;0.00;0.00;0.62;1.80;0.90;;;19.40;30.40;;;;;;2226278;62;20378;-64
2021/12/01 09:26:43;0.00;0.00;0.62;0.00;0.00;0.62;1.27;0.67;;;19.40;30.40;;;;;;2225974;62;20763;-64
2021/12/01 09:29:29;0.00;0.00;0.62;0.00;0.00;0.62;1.93;0.80;;;19.50;30.40;;;;;;2226257;62;20374;-66
2021/12/01 09:32:15;0.00;0.00;0.62;0.00;0.00;0.62;1.30;0.70;;;19.50;30.30;;;;;;2225927;62;20451;-66
2021/12/01 09:35:00;0.00;0.00;0.62;0.00;0.00;0.62;1.87;0.60;;;19.50;30.30;;;;;;2226246;62;20397;-65
2021/12/01 09:37:45;0.00;0.00;0.62;0.00;0.00;0.62;2.00;0.67;;;19.60;30.30;;;;;;2226174;62;20374;-65
2021/12/01 09:40:30;0.00;0.00;0.62;0.00;0.00;0.62;1.60;0.77;;;19.60;30.20;;;;;;2225606;62;20775;-65
2021/12/01 09:43:18;0.00;0.00;0.62;0.00;0.00;0.62;1.20;0.60;;;19.60;30.10;;;;;;2225897;62;20406;-65
2021/12/01 09:46:08;0.00;0.00;0.62;0.00;0.00;0.62;2.57;0.80;;;19.60;30.10;;;;;;2226347;62;20366;-65
2021/12/01 09:48:54;0.00;0.00;0.62;0.00;0.00;0.62;1.30;0.70;;;19.70;30.20;;;;;;2226159;62;20738;-65
2021/12/01 09:51:39;0.00;0.00;0.62;0.00;0.00;0.62;1.30;0.70;;;19.70;30.10;;;;;;2225953;62;20397;-65
2021/12/01 09:54:24;0.00;0.00;0.62;0.00;0.00;0.62;1.23;0.60;;;19.70;30.00;;;;;;2225737;62;20370;-65
2021/12/01 09:57:13;0.00;0.00;0.62;0.00;0.00;0.62;1.13;0.60;;;19.80;30.10;;;;;;2226136;62;20404;-64
2021/12/01 09:59:58;0.00;0.00;0.62;0.00;0.00;0.62;1.40;0.60;;;19.80;30.00;;;;;;2226096;62;20387;-64
2021/12/01 10:02:43;0.00;0.00;0.62;0.00;0.00;0.62;1.20;0.60;;;19.80;30.00;;;;;;2225675;62;20417;-66
2021/12/01 10:05:59;0.00;0.00;0.62;0.00;0.00;0.62;1.40;0.80;;;19.80;30.00;;;;;;2225997;62;20366;-67
2021/12/01 10:08:46;0.00;0.00;0.62;0.00;0.00;0.62;1.67;0.70;;;19.80;30.00;;;;;;2226179;62;20427;-66
2021/12/01 10:11:33;0.00;0.00;0.62;0.00;0.00;0.62;1.30;0.70;;;19.90;30.00;;;;;;2225569;62;20390;-66
2021/12/01 10:14:21;0.00;0.00;0.62;0.00;0.00;0.62;1.60;0.60;;;19.90;30.00;;;;;;2226082;62;20410;-65
2021/12/01 10:17:06;0.00;0.00;0.62;0.00;0.00;0.62;1.87;0.60;;;19.90;30.00;;;;;;2225788;62;20772;-66
2021/12/01 10:20:15;0.00;0.00;0.62;0.00;0.00;0.62;1.30;0.70;;;19.90;29.90;;;;;;2225884;62;20382;-66
2021/12/01 10:23:11;0.00;0.00;0.62;0.00;0.00;0.62;1.30;0.70;;;19.90;29.90;;;;;;2226412;62;20393;-66
2021/12/01 10:26:05;0.00;0.00;0.62;0.00;0.00;0.62;1.30;0.70;;;20.00;30.00;;;;;;2225433;62;20774;-66
2021/12/01 10:28:52;0.00;0.00;0.62;0.00;0.00;0.62;1.20;0.60;;;20.00;29.90;;;;;;2226136;62;20363;-66
2021/12/01 10:31:42;0.00;0.00;0.62;0.00;0.00;0.62;1.20;0.70;;;20.00;29.90;;;;;;2225592;62;20411;-66
2021/12/01 10:34:30;0.00;0.00;0.62;0.00;0.00;0.62;1.40;0.70;;;20.00;29.90;;;;;;2225722;62;20411;-66
2021/12/01 10:37:23;0.00;0.00;0.62;0.00;0.00;0.62;1.20;0.70;;;20.00;29.80;;;;;;2225717;62;20378;-66
2021/12/01 10:40:15;0.00;0.00;0.62;0.00;0.00;0.62;1.10;0.60;;;20.00;29.80;;;;;;2225531;62;20730;-66
2021/12/01 10:43:04;0.00;0.00;0.62;0.00;0.00;0.62;1.40;0.60;;;20.10;29.80;;;;;;2225646;62;20394;-66
2021/12/01 10:45:49;0.00;0.00;0.62;0.00;0.00;0.62;1.33;0.70;;;20.10;29.80;;;;;;2226111;62;20416;-66
2021/12/01 10:48:34;0.00;0.00;0.62;0.00;0.00;0.62;1.20;0.67;;;20.10;29.80;;;;;;2225428;62;20409;-66
2021/12/01 10:51:33;0.00;0.00;0.62;0.00;0.00;0.62;1.20;0.60;;;20.10;29.70;;;;;;2225700;62;20406;-66
2021/12/01 10:54:20;0.00;0.00;0.62;0.00;0.00;0.62;1.30;0.60;;;20.10;29.70;;;;;;2225515;62;20365;-66
2021/12/01 10:57:21;0.00;0.00;0.62;0.00;0.00;0.62;1.20;0.60;;;20.10;29.70;;;;;;2225898;62;20362;-66
2021/12/01 11:00:21;0.00;0.00;0.62;0.00;0.00;0.62;1.20;0.57;;;20.20;29.70;;;;;;2226150;62;20392;-65
2021/12/01 11:03:08;0.00;0.00;0.62;0.00;0.00;0.62;1.30;0.70;;;20.20;29.70;;;;;;2225301;62;20466;-66
2021/12/01 11:05:55;0.00;0.00;0.62;0.00;0.00;0.62;1.20;0.60;;;20.20;29.70;;;;;;2225517;62;20384;-66